Camp Mabry, Texas
Current Conditions -  °F | °C
As of 10:03 AM on Thursday 29 Jan 2015 (Local Time) from KATT Reporting Station
Scattered Clouds Scattered Clouds  
Wind Chill: 63°   Ceiling: Unl
Heat Index: 63°   Visibility: 10mi
Dew Point: 55°   Wind: 5mph
Humidity: 75%   Direction: 290°WNW
Pressure: 30.29"   Gusts: NA
Location:  30.3482°N, 97.7679°W
Report Text: KATT 291603Z AUTO 29004KT 10SM SCT015 17/13 A3029 RMK AO2 T01720128
Loading
Personal Weather Stations






























Interactive Weather Map New forecast layout! Learn more

10-Day Weather Forecast

Advertisements
Track Severe Weather on mobile